createdAt,value
2022-10-15T00:00:27.402Z,44.60
2022-10-15T00:01:27.450Z,46.00
2022-10-15T00:02:27.344Z,42.90
2022-10-15T00:03:27.316Z,42.80
2022-10-15T00:04:27.296Z,42.20
2022-10-15T00:05:27.271Z,45.10
2022-10-15T00:06:27.251Z,48.80
2022-10-15T00:07:27.230Z,43.40
2022-10-15T00:08:27.208Z,45.90
2022-10-15T00:09:27.184Z,46.20
2022-10-15T00:10:27.164Z,45.20
2022-10-15T00:11:27.140Z,46.80
2022-10-15T00:12:27.122Z,40.10
2022-10-15T00:13:27.099Z,45.00
2022-10-15T00:14:27.085Z,46.60
2022-10-15T00:15:27.054Z,44.50
2022-10-15T00:16:27.178Z,44.70
2022-10-15T00:17:27.012Z,42.10
2022-10-15T00:18:26.989Z,45.70
2022-10-15T00:19:26.967Z,41.50
2022-10-15T00:20:26.947Z,45.00
2022-10-15T00:21:26.923Z,48.60
2022-10-15T00:22:26.902Z,41.90
2022-10-15T00:23:26.881Z,41.00
2022-10-15T00:24:26.859Z,40.40
2022-10-15T00:25:26.837Z,43.30
2022-10-15T00:26:26.816Z,43.40
2022-10-15T00:27:26.790Z,45.80
2022-10-15T00:28:30.587Z,41.70
2022-10-15T00:29:26.748Z,44.70
2022-10-15T00:30:26.729Z,44.90
2022-10-15T00:31:26.702Z,47.60
2022-10-15T00:32:26.700Z,45.20
2022-10-15T00:33:26.658Z,46.90
2022-10-15T00:34:26.639Z,47.90
2022-10-15T00:35:26.621Z,41.40
2022-10-15T00:36:26.595Z,48.90
2022-10-15T00:37:26.572Z,45.50
2022-10-15T00:38:26.551Z,49.10
2022-10-15T00:39:26.530Z,44.10
2022-10-15T00:40:26.506Z,45.80
2022-10-15T00:41:26.484Z,47.40
2022-10-15T00:42:26.646Z,46.40
2022-10-15T00:43:26.443Z,46.40
2022-10-15T00:44:26.418Z,42.40
2022-10-15T00:45:26.403Z,46.40
2022-10-15T00:46:26.373Z,43.90
2022-10-15T00:47:26.350Z,49.70
2022-10-15T00:48:26.349Z,46.80
2022-10-15T00:49:26.305Z,46.10
2022-10-15T00:50:26.287Z,45.20
2022-10-15T00:51:26.262Z,43.90
2022-10-15T00:52:26.511Z,45.30
2022-10-15T00:53:26.219Z,41.40
2022-10-15T00:54:26.199Z,42.90
2022-10-15T00:55:26.173Z,41.50
2022-10-15T00:56:26.156Z,42.80
2022-10-15T00:57:26.132Z,47.60
2022-10-15T00:58:26.111Z,42.30
2022-10-15T00:59:26.087Z,48.90
2022-10-15T01:00:26.066Z,48.50
2022-10-15T01:01:26.187Z,45.70
2022-10-15T01:02:26.469Z,45.00
2022-10-15T01:03:25.997Z,42.10
2022-10-15T01:04:25.995Z,49.20
2022-10-15T01:05:25.955Z,45.60
2022-10-15T01:06:25.934Z,47.30
2022-10-15T01:07:25.910Z,45.70
2022-10-15T01:08:25.889Z,41.50
2022-10-15T01:09:25.864Z,43.30
2022-10-15T01:10:25.848Z,45.70
2022-10-15T01:11:25.822Z,47.50
2022-10-15T01:12:26.083Z,45.30
2022-10-15T01:13:25.776Z,48.60
2022-10-15T01:14:25.756Z,46.70
2022-10-15T01:15:25.734Z,45.80
2022-10-15T01:16:25.712Z,49.60
2022-10-15T01:17:25.960Z,45.80
2022-10-15T01:18:25.669Z,45.30
2022-10-15T01:19:25.644Z,45.00
2022-10-15T01:20:25.656Z,43.70
2022-10-15T01:21:25.600Z,49.40
2022-10-15T01:22:25.579Z,43.60
2022-10-15T01:23:26.086Z,45.80
2022-10-15T01:24:25.534Z,42.90
2022-10-15T01:25:25.513Z,44.90
2022-10-15T01:26:25.488Z,43.40
2022-10-15T01:27:25.879Z,43.00
2022-10-15T01:28:25.494Z,45.70
2022-10-15T01:29:25.422Z,43.50
2022-10-15T01:30:25.399Z,43.30
2022-10-15T01:31:25.377Z,40.40
2022-10-15T01:32:25.354Z,41.50
2022-10-15T01:33:25.386Z,40.10
2022-10-15T01:34:25.314Z,42.60
2022-10-15T01:35:25.288Z,42.20
2022-10-15T01:36:25.286Z,43.50
2022-10-15T01:37:25.654Z,39.70
2022-10-15T01:38:25.223Z,44.60
2022-10-15T01:39:25.207Z,44.40
2022-10-15T01:40:25.180Z,44.10
2022-10-15T01:41:25.153Z,42.00
2022-10-15T01:42:25.134Z,45.00
2022-10-15T01:43:25.118Z,41.70
2022-10-15T01:44:25.095Z,42.20
2022-10-15T01:45:25.067Z,41.70
2022-10-15T01:46:25.047Z,39.90
2022-10-15T01:47:25.452Z,40.70
2022-10-15T01:48:25.000Z,45.40
2022-10-15T01:49:24.977Z,42.00
2022-10-15T01:50:24.957Z,46.60
2022-10-15T01:51:24.932Z,41.80
2022-10-15T01:52:25.001Z,43.30
2022-10-15T01:53:24.887Z,38.90
2022-10-15T01:54:24.868Z,42.00
2022-10-15T01:55:24.844Z,41.40
2022-10-15T01:56:24.824Z,43.60
2022-10-15T01:57:25.143Z,39.50
2022-10-15T01:58:24.779Z,47.40
2022-10-15T01:59:24.756Z,43.00
2022-10-15T02:00:24.738Z,46.40
2022-10-15T02:01:24.905Z,46.80
2022-10-15T02:02:25.028Z,45.20
2022-10-15T02:03:24.666Z,44.70
2022-10-15T02:04:24.649Z,44.40
2022-10-15T02:05:24.622Z,43.70
2022-10-15T02:06:24.601Z,49.20
2022-10-15T02:07:24.578Z,49.00
2022-10-15T02:08:24.576Z,46.70
2022-10-15T02:09:24.533Z,45.40
2022-10-15T02:10:24.523Z,42.10
2022-10-15T02:11:24.488Z,43.80
2022-10-15T02:12:24.863Z,48.10
2022-10-15T02:13:24.442Z,41.90
2022-10-15T02:14:24.424Z,50.20
2022-10-15T02:15:24.402Z,48.20
2022-10-15T02:16:24.376Z,48.50
2022-10-15T02:17:24.352Z,43.10
2022-10-15T02:18:24.335Z,43.90
2022-10-15T02:19:24.310Z,45.40
2022-10-15T02:20:24.289Z,45.20
2022-10-15T02:21:24.264Z,50.00
2022-10-15T02:22:24.639Z,43.10
2022-10-15T02:23:24.220Z,40.60
2022-10-15T02:24:24.220Z,47.00
2022-10-15T02:25:24.176Z,50.40
2022-10-15T02:26:24.154Z,48.80
2022-10-15T02:27:24.130Z,47.50
2022-10-15T02:28:24.166Z,49.20
2022-10-15T02:29:24.084Z,49.10
2022-10-15T02:30:24.063Z,49.70
2022-10-15T02:31:24.041Z,47.10
2022-10-15T02:32:24.326Z,49.40
2022-10-15T02:33:23.994Z,52.10
2022-10-15T02:34:23.973Z,54.00
2022-10-15T02:35:23.959Z,52.10
2022-10-15T02:36:23.930Z,49.80
2022-10-15T02:37:23.909Z,49.70
2022-10-15T02:38:23.886Z,54.20
2022-10-15T02:39:23.858Z,53.70
2022-10-15T02:40:23.857Z,53.60
2022-10-15T02:41:23.818Z,50.10
2022-10-15T02:42:23.979Z,57.40
2022-10-15T02:43:23.771Z,59.50
2022-10-15T02:44:23.750Z,53.50
2022-10-15T02:45:23.725Z,45.80
2022-10-15T02:46:23.705Z,53.40
2022-10-15T02:48:23.661Z,54.20
2022-10-15T02:49:23.633Z,59.80
2022-10-15T02:50:23.613Z,55.40
2022-10-15T02:51:23.591Z,56.10
2022-10-15T02:52:23.912Z,53.50
2022-10-15T02:53:23.546Z,52.90
2022-10-15T02:54:23.525Z,56.40
2022-10-15T02:55:23.500Z,58.50
2022-10-15T02:56:23.555Z,48.30
2022-10-15T02:57:23.667Z,51.20
2022-10-15T02:58:23.435Z,52.00
2022-10-15T02:59:23.410Z,54.40
2022-10-15T03:00:23.389Z,49.50
2022-10-15T03:01:23.475Z,47.90
2022-10-15T03:02:23.342Z,51.20
2022-10-15T03:03:23.320Z,55.80
2022-10-15T03:04:23.300Z,50.80
2022-10-15T03:05:23.332Z,47.40
2022-10-15T03:06:23.254Z,49.00
2022-10-15T03:07:23.653Z,54.10
2022-10-15T03:08:23.207Z,50.10
2022-10-15T03:09:23.184Z,47.30
2022-10-15T03:10:23.162Z,49.80
2022-10-15T03:11:23.139Z,49.00
2022-10-15T03:12:23.134Z,48.30
2022-10-15T03:13:23.092Z,48.70
2022-10-15T03:14:23.131Z,46.90
2022-10-15T03:15:23.046Z,48.00
2022-10-15T03:16:23.028Z,53.60
2022-10-15T03:17:23.326Z,48.60
2022-10-15T03:18:22.984Z,45.90
2022-10-15T03:19:22.958Z,51.40
2022-10-15T03:20:22.936Z,48.20
2022-10-15T03:21:22.912Z,45.20
2022-10-15T03:22:22.891Z,45.50
2022-10-15T03:23:22.941Z,48.60
2022-10-15T03:24:22.845Z,49.10
2022-10-15T03:25:22.822Z,49.50
2022-10-15T03:26:22.801Z,48.80
2022-10-15T03:27:23.113Z,51.80
2022-10-15T03:28:22.802Z,46.60
2022-10-15T03:29:22.747Z,53.50
2022-10-15T03:30:22.708Z,50.60
2022-10-15T03:31:22.686Z,46.10
2022-10-15T03:32:22.715Z,50.70
2022-10-15T03:33:25.050Z,50.80
2022-10-15T03:34:22.619Z,49.10
2022-10-15T03:35:22.599Z,49.30
2022-10-15T03:36:22.572Z,46.80
2022-10-15T03:37:22.861Z,50.60
2022-10-15T03:38:22.527Z,48.70
2022-10-15T03:39:22.510Z,55.00
2022-10-15T03:40:22.481Z,59.60
2022-10-15T03:41:22.461Z,46.50
2022-10-15T03:42:22.787Z,48.30
2022-10-15T03:43:22.417Z,43.80
2022-10-15T03:44:22.410Z,46.00
2022-10-15T03:45:22.371Z,52.40
2022-10-15T03:46:22.347Z,46.20
2022-10-15T03:47:22.324Z,50.30
2022-10-15T03:48:22.303Z,47.60
2022-10-15T03:49:22.279Z,43.80
2022-10-15T03:50:22.255Z,47.90
2022-10-15T03:51:24.614Z,49.90
2022-10-15T03:52:22.470Z,48.40
2022-10-15T03:53:22.190Z,46.70
2022-10-15T03:54:22.166Z,51.60
2022-10-15T03:55:22.145Z,50.00
2022-10-15T03:56:22.122Z,51.50
2022-10-15T03:57:22.100Z,48.80
2022-10-15T03:58:22.077Z,45.70
2022-10-15T03:59:22.057Z,45.00
2022-10-15T04:00:22.055Z,48.00
2022-10-15T04:01:22.106Z,48.00
2022-10-15T04:02:22.302Z,52.40
2022-10-15T04:03:21.974Z,55.60
2022-10-15T04:04:21.940Z,47.50
2022-10-15T04:05:21.918Z,51.20
2022-10-15T04:06:21.894Z,52.30
2022-10-15T04:07:21.874Z,45.50
2022-10-15T04:08:21.849Z,51.60
2022-10-15T04:09:21.829Z,50.20
2022-10-15T04:10:21.804Z,47.40
2022-10-15T04:11:21.785Z,49.90
2022-10-15T04:12:22.066Z,46.90
2022-10-15T04:13:21.737Z,48.80
2022-10-15T04:14:21.715Z,53.50
2022-10-15T04:15:21.693Z,46.20
2022-10-15T04:16:21.685Z,47.20
2022-10-15T04:17:21.647Z,45.60
2022-10-15T04:18:21.632Z,46.30
2022-10-15T04:19:21.602Z,46.20
2022-10-15T04:20:21.580Z,45.80
2022-10-15T04:21:21.555Z,45.80
2022-10-15T04:22:21.820Z,45.70
2022-10-15T04:23:21.509Z,48.90
2022-10-15T04:24:21.485Z,46.00
2022-10-15T04:25:21.467Z,45.10
2022-10-15T04:26:21.439Z,48.20
2022-10-15T04:27:21.420Z,41.80
2022-10-15T04:28:21.446Z,44.60
2022-10-15T04:29:21.373Z,46.60
2022-10-15T04:30:21.409Z,47.50
2022-10-15T04:31:21.328Z,43.50
2022-10-15T04:32:21.576Z,44.90
2022-10-15T04:33:21.285Z,45.00
2022-10-15T04:34:21.257Z,45.50
2022-10-15T04:35:21.239Z,48.30
2022-10-15T04:36:21.220Z,43.40
2022-10-15T04:37:21.538Z,45.20
2022-10-15T04:38:21.167Z,40.60
2022-10-15T04:39:21.149Z,45.20
2022-10-15T04:40:21.120Z,43.90
2022-10-15T04:41:21.102Z,44.00
2022-10-15T04:42:21.075Z,44.60
2022-10-15T04:43:21.055Z,40.60
2022-10-15T04:44:21.029Z,42.30
2022-10-15T04:45:21.128Z,44.10
2022-10-15T04:46:20.984Z,45.40
2022-10-15T04:47:21.121Z,44.90
2022-10-15T04:48:20.959Z,41.30
2022-10-15T04:49:20.917Z,44.30
2022-10-15T04:50:20.893Z,44.20
2022-10-15T04:51:20.871Z,41.50
2022-10-15T04:52:20.848Z,42.80
2022-10-15T04:53:20.826Z,41.40
2022-10-15T04:54:20.822Z,42.10
2022-10-15T04:55:20.778Z,41.00
2022-10-15T04:56:20.759Z,41.30
2022-10-15T04:57:21.112Z,39.80
2022-10-15T04:58:20.707Z,41.20
2022-10-15T04:59:20.692Z,46.10
2022-10-15T05:00:20.664Z,41.90
2022-10-15T05:01:20.643Z,39.70
2022-10-15T05:02:20.684Z,41.10
2022-10-15T05:03:20.650Z,39.20
2022-10-15T05:04:20.602Z,37.00
2022-10-15T05:05:20.549Z,37.60
2022-10-15T05:06:20.531Z,36.90
2022-10-15T05:07:20.801Z,38.70
2022-10-15T05:08:20.482Z,34.50
2022-10-15T05:09:20.454Z,36.40
2022-10-15T05:10:20.434Z,35.60
2022-10-15T05:11:20.412Z,41.80
2022-10-15T05:12:20.397Z,36.90
2022-10-15T05:13:20.447Z,38.90
2022-10-15T05:14:20.341Z,37.90
2022-10-15T05:15:20.320Z,41.70
2022-10-15T05:16:20.293Z,37.60
2022-10-15T05:17:20.425Z,38.50
2022-10-15T05:18:20.245Z,38.10
2022-10-15T05:19:20.225Z,35.20
2022-10-15T05:20:20.218Z,39.70
2022-10-15T05:21:20.179Z,35.40
2022-10-15T05:22:20.413Z,36.70
2022-10-15T05:23:20.155Z,35.90
2022-10-15T05:24:20.109Z,37.60
2022-10-15T05:25:20.086Z,32.60
2022-10-15T05:26:20.063Z,35.10
2022-10-15T05:27:20.041Z,35.80
2022-10-15T05:28:20.085Z,38.50
2022-10-15T05:29:19.995Z,36.50
2022-10-15T05:30:19.970Z,36.50
2022-10-15T05:31:19.957Z,38.60
2022-10-15T05:33:19.900Z,35.00
2022-10-15T05:34:19.877Z,36.90
2022-10-15T05:35:19.855Z,33.20
2022-10-15T05:36:19.854Z,33.70
2022-10-15T05:37:19.809Z,40.00
2022-10-15T05:38:19.782Z,34.90
2022-10-15T05:39:19.760Z,33.50
2022-10-15T05:40:21.962Z,36.20
2022-10-15T05:41:19.716Z,35.70
2022-10-15T05:42:19.690Z,37.80
2022-10-15T05:43:19.668Z,35.80
2022-10-15T05:44:19.646Z,38.50
2022-10-15T05:45:19.624Z,36.20
2022-10-15T05:46:19.598Z,37.90
2022-10-15T05:47:19.580Z,41.10
2022-10-15T05:48:19.552Z,37.20
2022-10-15T05:49:19.528Z,37.70
2022-10-15T05:50:19.505Z,36.30
2022-10-15T05:51:19.483Z,43.60
2022-10-15T05:52:19.479Z,35.50
2022-10-15T05:53:19.437Z,34.90
2022-10-15T05:54:19.411Z,39.40
2022-10-15T05:55:19.390Z,36.30
2022-10-15T05:56:19.366Z,35.60
2022-10-15T05:57:19.343Z,34.70
2022-10-15T05:58:19.318Z,35.40
2022-10-15T05:59:19.298Z,40.40
2022-10-15T06:00:19.274Z,37.70
2022-10-15T06:01:19.249Z,35.50
2022-10-15T06:02:19.394Z,39.60
2022-10-15T06:03:19.203Z,34.80
2022-10-15T06:04:19.178Z,33.90
2022-10-15T06:05:19.157Z,42.90
2022-10-15T06:06:19.131Z,34.80
2022-10-15T06:07:19.110Z,40.70
2022-10-15T06:08:19.116Z,36.80
2022-10-15T06:09:19.071Z,36.80
2022-10-15T06:10:19.045Z,38.00
2022-10-15T06:11:19.022Z,37.50
2022-10-15T06:12:19.002Z,37.70
2022-10-15T06:13:19.041Z,34.90
2022-10-15T06:14:18.950Z,38.40
2022-10-15T06:15:18.931Z,38.00
2022-10-15T06:16:22.645Z,41.60
2022-10-15T06:17:18.878Z,37.80
2022-10-15T06:18:18.853Z,38.40
2022-10-15T06:19:18.833Z,41.90
2022-10-15T06:20:18.809Z,41.60
2022-10-15T06:21:18.785Z,40.50
2022-10-15T06:22:18.762Z,38.90
2022-10-15T06:23:18.741Z,43.60
2022-10-15T06:24:18.732Z,36.60
2022-10-15T06:25:18.697Z,44.00
2022-10-15T06:26:18.670Z,41.30
2022-10-15T06:27:18.649Z,38.10
2022-10-15T06:28:18.685Z,41.50
2022-10-15T06:29:18.604Z,37.60
2022-10-15T06:30:18.576Z,40.40
2022-10-15T06:31:18.554Z,41.90
2022-10-15T06:32:18.529Z,47.60
2022-10-15T06:33:18.509Z,49.90
2022-10-15T06:34:18.484Z,45.10
2022-10-15T06:35:18.462Z,48.40
2022-10-15T06:36:18.438Z,48.50
2022-10-15T06:37:18.416Z,44.50
2022-10-15T06:38:18.441Z,50.90
2022-10-15T06:39:18.370Z,52.60
2022-10-15T06:40:18.361Z,57.10
2022-10-15T06:41:18.326Z,58.40
2022-10-15T06:42:18.304Z,52.50
2022-10-15T06:43:18.279Z,52.90
2022-10-15T06:44:18.757Z,52.60
2022-10-15T06:45:21.019Z,62.00
2022-10-15T06:46:18.207Z,59.30
2022-10-15T06:47:18.185Z,74.20
2022-10-15T06:48:18.161Z,62.90
2022-10-15T06:49:18.138Z,67.90
2022-10-15T06:50:18.115Z,68.30
2022-10-15T06:51:18.091Z,68.70
2022-10-15T06:52:18.069Z,68.60
2022-10-15T06:53:18.054Z,64.20
2022-10-15T06:54:18.021Z,66.60
2022-10-15T06:55:18.003Z,70.80
2022-10-15T06:56:17.998Z,72.30
2022-10-15T06:57:17.953Z,69.20
2022-10-15T06:58:17.929Z,70.20
2022-10-15T06:59:17.909Z,75.40
2022-10-15T07:00:17.883Z,76.80
2022-10-15T07:01:17.864Z,74.60
2022-10-15T07:02:17.844Z,74.80
2022-10-15T07:03:17.816Z,83.50
2022-10-15T07:04:17.793Z,72.00
2022-10-15T07:05:17.819Z,76.90
2022-10-15T07:06:17.749Z,84.60
2022-10-15T07:07:17.724Z,85.00
2022-10-15T07:08:19.323Z,78.30
2022-10-15T07:09:17.677Z,78.80
2022-10-15T07:10:17.730Z,81.90
2022-10-15T07:11:17.633Z,81.40
2022-10-15T07:12:17.629Z,86.60
2022-10-15T07:13:17.586Z,86.00
2022-10-15T07:14:17.563Z,93.70
2022-10-15T07:15:17.541Z,88.40
2022-10-15T07:16:17.519Z,86.90
2022-10-15T07:17:17.495Z,83.70
2022-10-15T07:18:17.474Z,91.00
2022-10-15T07:19:17.449Z,89.10
2022-10-15T07:20:21.642Z,88.30
2022-10-15T07:21:17.402Z,83.60
2022-10-15T07:22:17.378Z,89.30
2022-10-15T07:23:17.359Z,89.10
2022-10-15T07:24:17.333Z,81.60
2022-10-15T07:25:17.311Z,85.90
2022-10-15T07:26:17.287Z,87.80
2022-10-15T07:27:19.092Z,86.30
2022-10-15T07:28:17.350Z,88.30
2022-10-15T07:29:17.233Z,85.10
2022-10-15T07:30:17.195Z,89.60
2022-10-15T07:31:17.173Z,87.60
2022-10-15T07:32:17.153Z,81.30
2022-10-15T07:33:17.129Z,90.50
2022-10-15T07:34:17.104Z,89.20
2022-10-15T07:35:17.084Z,93.10
2022-10-15T07:36:17.077Z,89.60
2022-10-15T07:37:17.037Z,80.80
2022-10-15T07:38:17.011Z,84.10
2022-10-15T07:39:16.992Z,86.80
2022-10-15T07:40:16.967Z,86.00
2022-10-15T07:41:16.945Z,86.10
2022-10-15T07:42:16.941Z,89.50
2022-10-15T07:43:16.901Z,88.10
2022-10-15T07:44:16.897Z,84.70
2022-10-15T07:45:16.856Z,95.10
2022-10-15T07:46:16.831Z,90.80
2022-10-15T07:47:16.810Z,79.50
2022-10-15T07:48:16.789Z,84.00
2022-10-15T07:49:16.763Z,92.10
2022-10-15T07:50:16.743Z,88.50
2022-10-15T07:52:16.698Z,89.70
2022-10-15T07:53:18.163Z,90.60
2022-10-15T07:54:16.651Z,93.10
2022-10-15T07:55:16.631Z,81.80
2022-10-15T07:56:16.607Z,79.50
2022-10-15T07:57:16.579Z,88.00
2022-10-15T07:58:16.562Z,84.70
2022-10-15T07:59:16.541Z,80.50
2022-10-15T08:00:16.538Z,85.10
2022-10-15T08:01:16.490Z,79.60
2022-10-15T08:02:16.472Z,82.00
2022-10-15T08:03:16.446Z,85.80
2022-10-15T08:04:16.426Z,79.00
2022-10-15T08:05:16.398Z,75.10
2022-10-15T08:06:16.380Z,87.10
2022-10-15T08:07:16.358Z,81.40
2022-10-15T08:08:16.333Z,80.40
2022-10-15T08:09:16.310Z,79.50
2022-10-15T08:10:16.290Z,77.80
2022-10-15T08:11:16.267Z,78.10
2022-10-15T08:12:16.244Z,84.70
2022-10-15T08:13:16.222Z,85.20
2022-10-15T08:14:16.199Z,75.30
2022-10-15T08:15:16.176Z,75.00
2022-10-15T08:16:16.172Z,78.10
2022-10-15T08:17:16.128Z,79.00
2022-10-15T08:18:16.108Z,76.60
2022-10-15T08:19:16.084Z,86.00
2022-10-15T08:20:16.066Z,82.20
2022-10-15T08:21:16.041Z,77.60
2022-10-15T08:22:16.021Z,79.50
2022-10-15T08:23:15.998Z,82.50
2022-10-15T08:24:15.973Z,83.70
2022-10-15T08:25:15.975Z,85.40
2022-10-15T08:26:15.931Z,87.70
2022-10-15T08:27:15.906Z,83.10
2022-10-15T08:28:15.887Z,84.30
2022-10-15T08:29:15.863Z,85.00
2022-10-15T08:30:15.841Z,85.20
2022-10-15T08:31:15.816Z,86.30
2022-10-15T08:32:15.811Z,86.40
2022-10-15T08:33:15.772Z,79.80
2022-10-15T08:34:15.750Z,81.90
2022-10-15T08:35:15.728Z,79.30
2022-10-15T08:36:15.817Z,82.50
2022-10-15T08:37:15.684Z,74.80
2022-10-15T08:38:19.027Z,82.80
2022-10-15T08:39:15.657Z,77.80
2022-10-15T08:40:15.616Z,78.70
2022-10-15T08:41:15.591Z,77.30
2022-10-15T08:42:15.571Z,70.90
2022-10-15T08:43:15.548Z,71.80
2022-10-15T08:44:15.529Z,66.70
2022-10-15T08:45:15.504Z,65.80
2022-10-15T08:47:15.458Z,72.90
2022-10-15T08:48:15.457Z,68.40
2022-10-15T08:49:15.411Z,65.10
2022-10-15T08:50:15.393Z,66.60
2022-10-15T08:51:15.369Z,64.30
2022-10-15T08:52:15.347Z,64.80
2022-10-15T08:53:15.327Z,61.80
2022-10-15T08:54:15.305Z,58.90
2022-10-15T08:55:15.328Z,61.10
2022-10-15T08:56:15.266Z,62.70
2022-10-15T08:57:15.236Z,59.90
2022-10-15T08:58:15.214Z,56.50
2022-10-15T08:59:15.195Z,53.40
2022-10-15T09:00:15.169Z,54.30
2022-10-15T09:01:15.147Z,53.70
2022-10-15T09:02:15.128Z,55.70
2022-10-15T09:03:15.174Z,51.60
2022-10-15T09:04:15.196Z,52.80
2022-10-15T09:05:15.057Z,53.50
2022-10-15T09:06:15.040Z,52.60
2022-10-15T09:07:15.016Z,46.70
2022-10-15T09:08:14.995Z,46.70
2022-10-15T09:09:14.968Z,46.00
2022-10-15T09:10:14.950Z,47.60
2022-10-15T09:11:14.926Z,45.60
2022-10-15T09:12:14.906Z,49.80
2022-10-15T09:13:16.488Z,46.90
2022-10-15T09:14:14.909Z,45.80
2022-10-15T09:15:14.842Z,47.60
2022-10-15T09:16:14.818Z,44.30
2022-10-15T09:17:14.824Z,44.10
2022-10-15T09:18:14.853Z,47.00
2022-10-15T09:19:14.750Z,45.20
2022-10-15T09:20:14.745Z,42.70
2022-10-15T09:21:14.712Z,53.90
2022-10-15T09:22:14.684Z,43.40
2022-10-15T09:23:14.668Z,46.90
2022-10-15T09:24:14.642Z,40.10
2022-10-15T09:25:14.619Z,40.80
2022-10-15T09:26:14.601Z,40.80
2022-10-15T09:27:14.578Z,41.80
2022-10-15T09:28:14.553Z,38.10
2022-10-15T09:29:14.533Z,42.20
2022-10-15T09:30:14.509Z,38.40
2022-10-15T09:31:14.486Z,39.10
2022-10-15T09:32:14.466Z,37.90
2022-10-15T09:33:14.441Z,41.00
2022-10-15T09:34:14.420Z,41.70
2022-10-15T09:35:14.397Z,39.00
2022-10-15T09:36:14.396Z,39.00
2022-10-15T09:37:14.358Z,40.80
2022-10-15T09:38:14.339Z,39.90
2022-10-15T09:39:14.310Z,39.60
2022-10-15T09:40:14.295Z,36.60
2022-10-15T09:41:14.267Z,37.40
2022-10-15T09:42:14.246Z,39.00
2022-10-15T09:43:14.254Z,34.70
2022-10-15T09:44:14.203Z,33.20
2022-10-15T09:45:14.178Z,33.30
2022-10-15T09:46:14.181Z,39.00
2022-10-15T09:47:14.134Z,38.80
2022-10-15T09:48:14.165Z,36.30
2022-10-15T09:49:14.089Z,33.80
2022-10-15T09:50:14.108Z,34.10
2022-10-15T09:51:14.048Z,38.30
2022-10-15T09:52:14.042Z,34.20
2022-10-15T09:53:14.002Z,39.90
2022-10-15T09:54:13.984Z,37.90
2022-10-15T09:55:13.963Z,36.00
2022-10-15T09:56:13.940Z,28.90
2022-10-15T09:57:13.924Z,31.10
2022-10-15T09:58:13.899Z,29.80
2022-10-15T09:59:13.874Z,29.60
2022-10-15T10:00:13.859Z,28.70
2022-10-15T10:01:13.833Z,28.70
2022-10-15T10:02:13.906Z,29.40
2022-10-15T10:03:13.790Z,29.00
2022-10-15T10:04:13.772Z,28.70
2022-10-15T10:05:13.748Z,27.60
2022-10-15T10:06:13.736Z,25.20
2022-10-15T10:07:13.709Z,27.60
2022-10-15T10:08:13.724Z,25.70
2022-10-15T10:09:13.664Z,22.90
2022-10-15T10:10:13.652Z,23.90
2022-10-15T10:11:13.621Z,22.20
2022-10-15T10:12:13.609Z,20.20
2022-10-15T10:13:13.584Z,23.70
2022-10-15T10:14:13.569Z,20.60
2022-10-15T10:15:13.541Z,19.30
2022-10-15T10:16:13.521Z,20.50
2022-10-15T10:17:13.502Z,20.80
2022-10-15T10:18:13.518Z,20.10
2022-10-15T10:19:13.462Z,21.20
2022-10-15T10:20:13.441Z,19.10
2022-10-15T10:21:13.418Z,20.90
2022-10-15T10:22:13.401Z,21.90
2022-10-15T10:23:13.377Z,20.00
2022-10-15T10:24:13.501Z,19.10
2022-10-15T10:25:13.335Z,18.50
2022-10-15T10:26:13.318Z,19.00
2022-10-15T10:27:13.298Z,17.80
2022-10-15T10:28:13.275Z,17.90
2022-10-15T10:29:32.494Z,17.90
2022-10-15T10:30:13.233Z,18.40
2022-10-15T10:31:13.213Z,17.60
2022-10-15T10:32:13.193Z,16.80
2022-10-15T10:33:13.172Z,15.80
2022-10-15T10:34:13.152Z,20.60
2022-10-15T10:35:13.130Z,20.50
2022-10-15T10:36:13.112Z,18.70
2022-10-15T10:37:13.087Z,17.90
2022-10-15T10:38:13.067Z,17.00
2022-10-15T10:39:13.049Z,20.20
2022-10-15T10:40:13.088Z,19.10
2022-10-15T10:41:13.005Z,19.60
2022-10-15T10:42:12.986Z,18.10
2022-10-15T10:43:12.966Z,22.00
2022-10-15T10:44:12.947Z,19.70
2022-10-15T10:45:16.419Z,19.10
2022-10-15T10:46:12.908Z,20.70
2022-10-15T10:47:12.888Z,21.10
2022-10-15T10:48:12.867Z,20.30
2022-10-15T10:49:12.844Z,21.10
2022-10-15T10:50:12.828Z,18.60
2022-10-15T10:51:14.041Z,18.40
2022-10-15T10:52:12.790Z,17.70
2022-10-15T10:53:12.768Z,19.30
2022-10-15T10:54:12.746Z,16.90
2022-10-15T10:55:12.767Z,16.50
2022-10-15T10:56:12.724Z,19.60
2022-10-15T10:57:12.689Z,16.60
2022-10-15T10:58:12.675Z,16.60
2022-10-15T10:59:12.647Z,18.80
2022-10-15T11:00:12.630Z,16.60
2022-10-15T11:01:12.638Z,18.00
2022-10-15T11:02:12.589Z,20.00
2022-10-15T11:03:12.570Z,17.00
2022-10-15T11:04:15.510Z,17.20
2022-10-15T11:05:12.529Z,15.30
2022-10-15T11:06:12.520Z,15.30
2022-10-15T11:07:12.501Z,15.40
2022-10-15T11:08:12.475Z,16.60
2022-10-15T11:09:12.454Z,16.00
2022-10-15T11:10:12.468Z,15.70
2022-10-15T11:11:12.411Z,13.20
2022-10-15T11:12:12.412Z,15.50
2022-10-15T11:13:12.373Z,14.20
2022-10-15T11:14:12.356Z,13.70
2022-10-15T11:15:12.335Z,12.70
2022-10-15T11:16:12.313Z,16.50
2022-10-15T11:17:12.299Z,13.30
2022-10-15T11:18:12.276Z,11.50
2022-10-15T11:19:19.821Z,11.10
2022-10-15T11:20:29.279Z,11.20
2022-10-15T11:21:12.218Z,11.90
2022-10-15T11:22:12.249Z,11.30
2022-10-15T11:23:12.174Z,10.60
2022-10-15T11:24:12.155Z,10.50
2022-10-15T11:25:12.136Z,12.10
2022-10-15T11:26:12.120Z,10.00
2022-10-15T11:27:12.093Z,10.40
2022-10-15T11:28:12.092Z,10.10
2022-10-15T11:29:12.054Z,11.50
2022-10-15T11:30:12.036Z,10.00
2022-10-15T11:31:12.055Z,11.20
2022-10-15T11:32:16.975Z,9.80
2022-10-15T11:33:12.190Z,10.50
2022-10-15T11:34:11.956Z,9.10
2022-10-15T11:35:16.940Z,9.80
2022-10-15T11:36:11.919Z,12.10
2022-10-15T11:37:11.895Z,10.40
2022-10-15T11:38:11.875Z,10.30
2022-10-15T11:39:11.854Z,11.80
2022-10-15T11:40:11.836Z,12.10
2022-10-15T11:41:11.819Z,8.40
2022-10-15T11:42:11.798Z,9.40
2022-10-15T11:43:11.776Z,10.30
2022-10-15T11:44:11.775Z,9.20
2022-10-15T11:45:11.747Z,9.10
2022-10-15T11:46:11.715Z,11.40
2022-10-15T11:47:11.695Z,9.90
2022-10-15T11:48:11.678Z,12.00
2022-10-15T11:49:11.655Z,9.90
2022-10-15T11:50:11.636Z,9.30
2022-10-15T11:51:11.612Z,8.10
2022-10-15T11:52:11.596Z,9.40
2022-10-15T11:53:11.575Z,13.70
2022-10-15T11:54:11.558Z,11.50
2022-10-15T11:55:11.534Z,10.00
2022-10-15T11:56:11.516Z,8.80
2022-10-15T11:57:11.493Z,8.80
2022-10-15T11:58:11.474Z,8.20
2022-10-15T11:59:11.453Z,10.00
2022-10-15T12:00:11.459Z,8.90
2022-10-15T12:01:11.414Z,9.20
2022-10-15T12:02:11.392Z,7.20
2022-10-15T12:03:11.427Z,8.20
2022-10-15T12:04:11.487Z,6.90
2022-10-15T12:05:11.332Z,9.50
2022-10-15T12:06:11.312Z,7.80
2022-10-15T12:07:11.301Z,8.70
2022-10-15T12:08:11.270Z,8.50
2022-10-15T12:09:11.252Z,7.40
2022-10-15T12:10:11.229Z,7.20
2022-10-15T12:11:11.211Z,8.60
2022-10-15T12:12:11.188Z,7.80
2022-10-15T12:13:11.168Z,9.20
2022-10-15T12:14:11.145Z,8.10
2022-10-15T12:15:11.126Z,8.30
2022-10-15T12:16:11.119Z,6.40
2022-10-15T12:17:11.086Z,5.80
2022-10-15T12:18:11.063Z,6.80
2022-10-15T12:19:11.041Z,5.90
2022-10-15T12:20:11.021Z,7.20
2022-10-15T12:21:11.000Z,6.50
2022-10-15T12:22:10.979Z,6.90
2022-10-15T12:23:10.964Z,7.20
2022-10-15T12:24:10.939Z,7.90
2022-10-15T12:25:10.918Z,6.00
2022-10-15T12:26:10.972Z,5.20
2022-10-15T12:27:10.875Z,5.50
2022-10-15T12:28:10.854Z,5.10
2022-10-15T12:29:10.856Z,5.90
2022-10-15T12:30:10.810Z,5.80
2022-10-15T12:31:10.795Z,4.80
2022-10-15T12:32:10.787Z,4.60
2022-10-15T12:33:10.754Z,5.30
2022-10-15T12:34:10.734Z,4.50
2022-10-15T12:35:10.753Z,5.60
2022-10-15T12:36:10.687Z,6.80
2022-10-15T12:37:10.672Z,5.30
2022-10-15T12:38:10.649Z,4.90
2022-10-15T12:39:17.617Z,4.30
2022-10-15T12:40:10.604Z,3.60
2022-10-15T12:41:10.584Z,4.10
2022-10-15T12:42:10.604Z,4.80
2022-10-15T12:43:10.542Z,5.60
2022-10-15T12:44:10.520Z,4.20
2022-10-15T12:45:10.503Z,4.20
2022-10-15T12:46:10.484Z,3.80
2022-10-15T12:47:10.459Z,4.60
2022-10-15T12:48:10.451Z,4.20
2022-10-15T12:49:10.416Z,3.60
2022-10-15T12:50:10.394Z,3.80
2022-10-15T12:51:10.373Z,3.70
2022-10-15T12:52:10.352Z,4.00
2022-10-15T12:53:10.333Z,4.60
2022-10-15T12:54:10.308Z,4.80
2022-10-15T12:55:10.290Z,6.40
2022-10-15T12:56:10.268Z,5.00
2022-10-15T12:57:10.248Z,7.20
2022-10-15T12:58:10.224Z,4.70
2022-10-15T12:59:10.205Z,5.00